createdAt,value
2022-10-11T00:01:02.272Z,9.30
2022-10-11T00:03:36.601Z,5.40
2022-10-11T00:06:06.614Z,7.10
2022-10-11T00:08:35.717Z,6.10
2022-10-11T00:11:07.881Z,6.20
2022-10-11T00:13:36.262Z,5.70
2022-10-11T00:16:09.829Z,7.20
2022-10-11T00:18:39.039Z,4.70
2022-10-11T00:21:10.816Z,5.70
2022-10-11T00:23:39.299Z,5.90
2022-10-11T00:26:09.832Z,8.10
2022-10-11T00:28:38.588Z,5.40
2022-10-11T00:31:09.273Z,8.90
2022-10-11T00:33:37.626Z,7.00
2022-10-11T00:36:07.337Z,4.40
2022-10-11T00:38:35.815Z,7.40
2022-10-11T00:41:04.092Z,5.90
2022-10-11T00:43:33.086Z,5.70
2022-10-11T00:46:24.811Z,6.70
2022-10-11T00:49:07.523Z,5.10
2022-10-11T00:51:58.942Z,5.90
2022-10-11T00:54:32.032Z,7.20
2022-10-11T00:57:07.374Z,6.10
2022-10-11T00:59:40.543Z,5.00
2022-10-11T01:02:10.275Z,5.90
2022-10-11T01:04:38.550Z,6.00
2022-10-11T01:07:06.929Z,5.40
2022-10-11T01:09:35.410Z,5.10
2022-10-11T01:12:12.495Z,4.60
2022-10-11T01:14:43.637Z,7.20
2022-10-11T01:17:32.703Z,5.90
2022-10-11T01:20:26.884Z,5.60
2022-10-11T01:23:19.325Z,6.90
2022-10-11T01:26:13.303Z,9.30
2022-10-11T01:28:56.714Z,5.80
2022-10-11T01:31:50.818Z,5.90
2022-10-11T01:34:37.310Z,8.50
2022-10-11T01:37:15.222Z,5.70
2022-10-11T01:40:06.646Z,7.50
2022-10-11T01:42:39.321Z,5.50
2022-10-11T01:45:12.797Z,4.20
2022-10-11T01:47:42.733Z,6.40
2022-10-11T01:50:38.453Z,7.20
2022-10-11T01:53:16.559Z,6.10
2022-10-11T01:55:55.364Z,6.90
2022-10-11T01:58:36.869Z,8.00
2022-10-11T02:01:07.759Z,9.20
2022-10-11T02:04:02.583Z,6.50
2022-10-11T02:06:45.935Z,8.20
2022-10-11T02:09:30.302Z,6.90
2022-10-11T02:12:04.197Z,5.40
2022-10-11T02:14:36.774Z,11.50
2022-10-11T02:17:10.987Z,6.40
2022-10-11T02:19:44.386Z,7.50
2022-10-11T02:22:26.590Z,6.60
2022-10-11T02:24:59.264Z,6.60
2022-10-11T02:27:33.583Z,9.70
2022-10-11T02:30:05.544Z,7.80
2022-10-11T02:32:35.972Z,8.60
2022-10-11T02:35:04.806Z,7.00
2022-10-11T02:37:47.782Z,7.00
2022-10-11T02:40:24.868Z,8.30
2022-10-11T02:43:12.802Z,5.90
2022-10-11T02:45:55.106Z,6.80
2022-10-11T02:48:25.402Z,7.40
2022-10-11T02:50:54.526Z,6.10
2022-10-11T02:53:24.130Z,8.90
2022-10-11T02:55:53.946Z,5.30
2022-10-11T02:58:23.450Z,8.10
2022-10-11T03:00:51.727Z,8.40
2022-10-11T03:03:19.803Z,6.70
2022-10-11T03:05:47.869Z,6.80
2022-10-11T03:08:17.754Z,8.30
2022-10-11T03:10:45.753Z,6.30
2022-10-11T03:13:17.878Z,7.60
2022-10-11T03:16:02.410Z,6.00
2022-10-11T03:18:31.895Z,6.50
2022-10-11T03:21:00.177Z,10.80
2022-10-11T03:23:28.432Z,8.30
2022-10-11T03:25:56.606Z,6.40
2022-10-11T03:28:24.786Z,6.90
2022-10-11T03:30:53.362Z,6.70
2022-10-11T03:33:21.435Z,8.50
2022-10-11T03:35:50.428Z,7.20
2022-10-11T03:38:22.226Z,5.30
2022-10-11T03:43:18.222Z,6.90
2022-10-11T03:45:46.504Z,8.20
2022-10-11T03:48:15.061Z,5.10
2022-10-11T03:50:43.055Z,4.10
2022-10-11T03:53:11.713Z,4.50
2022-10-11T03:55:40.651Z,6.40
2022-10-11T03:58:09.384Z,6.60
2022-10-11T04:00:37.903Z,6.20
2022-10-11T04:03:05.970Z,9.00
2022-10-11T04:05:33.948Z,6.00
2022-10-11T04:08:02.216Z,6.90
2022-10-11T04:10:31.721Z,6.10
2022-10-11T04:12:59.997Z,9.20
2022-10-11T04:15:27.966Z,9.80
2022-10-11T04:17:55.939Z,9.00
2022-10-11T04:20:23.904Z,8.30
2022-10-11T04:22:51.977Z,9.60
2022-10-11T04:25:20.252Z,7.40
2022-10-11T04:27:48.834Z,6.80
2022-10-11T04:30:17.522Z,7.10
2022-10-11T04:32:45.694Z,9.80
2022-10-11T04:35:14.259Z,7.80
2022-10-11T04:37:42.245Z,7.70
2022-10-11T04:40:11.406Z,8.10
2022-10-11T04:42:39.517Z,8.40
2022-10-11T04:45:09.537Z,8.90
2022-10-11T04:47:38.218Z,13.40
2022-10-11T04:50:06.805Z,11.40
2022-10-11T04:52:34.873Z,7.60
2022-10-11T04:55:02.842Z,10.20
2022-10-11T04:57:30.810Z,8.10
2022-10-11T04:59:58.779Z,8.70
2022-10-11T05:02:26.884Z,9.80
2022-10-11T05:04:55.126Z,7.20
2022-10-11T05:07:23.095Z,10.50
2022-10-11T05:09:51.064Z,7.10
2022-10-11T05:12:19.034Z,9.10
2022-10-11T05:14:47.004Z,13.50
2022-10-11T05:17:15.073Z,8.60
2022-10-11T05:19:43.043Z,9.80
2022-10-11T05:22:11.114Z,9.70
2022-10-11T05:24:39.209Z,15.30
2022-10-11T05:27:07.359Z,11.10
2022-10-11T05:29:35.431Z,8.20
2022-10-11T05:32:03.604Z,12.90
2022-10-11T05:34:31.678Z,7.40
2022-10-11T05:36:59.850Z,10.40
2022-10-11T05:39:27.819Z,11.50
2022-10-11T05:41:55.890Z,14.40
2022-10-11T05:44:23.962Z,10.60
2022-10-11T05:46:52.035Z,11.00
2022-10-11T05:49:20.103Z,9.60
2022-10-11T05:51:48.073Z,10.00
2022-10-11T05:54:16.050Z,12.80
2022-10-11T05:56:44.010Z,13.10
2022-10-11T05:59:12.082Z,13.20
2022-10-11T06:01:40.577Z,13.70
2022-10-11T06:04:08.739Z,12.20
2022-10-11T06:06:36.705Z,11.70
2022-10-11T06:09:04.674Z,15.50
2022-10-11T06:11:32.745Z,23.50
2022-10-11T06:14:00.816Z,27.00
2022-10-11T06:16:28.887Z,22.20
2022-10-11T06:18:57.891Z,19.30
2022-10-11T06:21:26.156Z,17.90
2022-10-11T06:24:00.781Z,21.40
2022-10-11T06:26:30.039Z,17.60
2022-10-11T06:28:58.854Z,16.50
2022-10-11T06:31:27.556Z,14.10
2022-10-11T06:33:55.525Z,13.20
2022-10-11T06:36:23.597Z,16.00
2022-10-11T06:38:55.933Z,15.20
2022-10-11T06:41:29.264Z,16.70
2022-10-11T06:43:57.947Z,16.10
2022-10-11T06:46:28.169Z,19.40
2022-10-11T06:48:56.687Z,15.80
2022-10-11T06:51:26.032Z,12.90
2022-10-11T06:53:56.906Z,17.90
2022-10-11T06:56:27.335Z,17.80
2022-10-11T06:58:56.820Z,15.90
2022-10-11T07:01:25.558Z,15.20
2022-10-11T07:03:55.830Z,16.40
2022-10-11T07:06:27.283Z,16.70
2022-10-11T07:08:55.737Z,18.40
2022-10-11T07:11:26.805Z,26.80
2022-10-11T07:14:00.507Z,20.40
2022-10-11T07:16:29.194Z,17.90
2022-10-11T07:19:00.773Z,14.40
2022-10-11T07:21:31.177Z,17.20
2022-10-11T07:24:00.184Z,20.80
2022-10-11T07:26:33.817Z,16.10
2022-10-11T07:29:07.162Z,21.00
2022-10-11T07:31:37.521Z,19.40
2022-10-11T07:34:05.785Z,21.10
2022-10-11T07:36:34.243Z,20.00
2022-10-11T07:39:05.487Z,18.20
2022-10-11T07:41:33.871Z,21.60
2022-10-11T07:44:01.938Z,18.80
2022-10-11T07:46:30.119Z,20.90
2022-10-11T07:48:58.593Z,20.00
2022-10-11T07:51:26.975Z,19.30
2022-10-11T07:53:56.874Z,23.50
2022-10-11T07:56:27.517Z,17.20
2022-10-11T07:58:57.989Z,20.20
2022-10-11T08:01:27.951Z,19.40
2022-10-11T08:03:59.825Z,14.20
2022-10-11T08:06:31.837Z,24.30
2022-10-11T08:09:00.949Z,21.00
2022-10-11T08:11:32.536Z,21.10
2022-10-11T08:14:01.199Z,19.10
2022-10-11T08:16:29.206Z,22.60
2022-10-11T08:18:57.343Z,21.60
2022-10-11T08:21:26.974Z,21.80
2022-10-11T08:23:55.256Z,21.10
2022-10-11T08:26:24.926Z,20.90
2022-10-11T08:28:53.071Z,24.20
2022-10-11T08:31:21.609Z,17.40
2022-10-11T08:33:50.193Z,19.00
2022-10-11T08:36:18.469Z,20.70
2022-10-11T08:38:46.551Z,19.10
2022-10-11T08:41:17.377Z,21.60
2022-10-11T08:43:51.285Z,21.10
2022-10-11T08:46:24.477Z,20.70
2022-10-11T08:48:52.549Z,17.70
2022-10-11T08:51:43.248Z,22.80
2022-10-11T08:54:30.162Z,21.60
2022-10-11T08:56:58.644Z,18.90
2022-10-11T08:59:37.779Z,17.20
2022-10-11T09:02:31.765Z,21.80
2022-10-11T09:05:14.569Z,18.80
2022-10-11T09:07:42.460Z,17.50
2022-10-11T09:10:31.604Z,21.70
2022-10-11T09:13:31.626Z,19.80
2022-10-11T09:16:18.433Z,20.60
2022-10-11T09:19:08.040Z,18.30
2022-10-11T09:22:14.991Z,21.80
2022-10-11T09:24:48.902Z,20.00
2022-10-11T09:27:33.036Z,18.00
2022-10-11T09:30:14.606Z,16.40
2022-10-11T09:32:47.932Z,26.70
2022-10-11T09:35:19.177Z,21.00
2022-10-11T09:38:10.469Z,19.70
2022-10-11T09:40:53.514Z,20.30
2022-10-11T09:43:21.893Z,19.80
2022-10-11T09:45:49.977Z,21.50
2022-10-11T09:48:25.408Z,22.20
2022-10-11T09:50:59.010Z,23.80
2022-10-11T09:53:54.011Z,23.00
2022-10-11T09:56:24.239Z,23.80
2022-10-11T09:59:08.961Z,17.80
2022-10-11T10:01:37.226Z,19.50
2022-10-11T10:04:11.692Z,17.60
2022-10-11T10:06:41.197Z,15.70
2022-10-11T10:09:33.235Z,19.30
2022-10-11T10:14:41.238Z,22.20
2022-10-11T10:17:17.662Z,24.80
2022-10-11T10:19:56.445Z,22.10
2022-10-11T10:22:29.839Z,23.10
2022-10-11T10:25:01.287Z,22.20
2022-10-11T10:27:30.796Z,31.90
2022-10-11T10:30:16.312Z,22.30
2022-10-11T10:33:07.179Z,22.50
2022-10-11T10:35:47.333Z,24.40
2022-10-11T10:38:51.292Z,23.50
2022-10-11T10:41:20.515Z,21.00
2022-10-11T10:44:01.007Z,21.60
2022-10-11T10:46:41.264Z,24.50
2022-10-11T10:49:51.998Z,22.00
2022-10-11T10:52:40.328Z,41.90
2022-10-11T10:55:43.373Z,40.90
2022-10-11T10:58:23.734Z,23.80
2022-10-11T11:00:58.778Z,24.20
2022-10-11T11:03:38.818Z,28.70
2022-10-11T11:06:13.035Z,25.30
2022-10-11T11:09:05.475Z,24.30
2022-10-11T11:11:39.490Z,21.70
2022-10-11T11:14:23.635Z,16.40
2022-10-11T11:16:54.472Z,21.50
2022-10-11T11:19:41.180Z,21.20
2022-10-11T11:22:18.468Z,19.70
2022-10-11T11:25:01.693Z,21.60
2022-10-11T11:27:58.343Z,20.00
2022-10-11T11:30:48.220Z,18.80
2022-10-11T11:33:36.873Z,18.90
2022-10-11T11:36:14.343Z,15.50
2022-10-11T11:38:47.145Z,19.10
2022-10-11T11:41:24.534Z,15.90
2022-10-11T11:44:02.646Z,20.40
2022-10-11T11:46:57.853Z,19.90
2022-10-11T11:49:38.462Z,20.60
2022-10-11T11:52:12.014Z,23.70
2022-10-11T11:54:45.411Z,25.00
2022-10-11T11:57:20.752Z,14.90
2022-10-11T11:59:57.971Z,21.90
2022-10-11T12:02:38.296Z,24.10
2022-10-11T12:05:16.801Z,16.60
2022-10-11T12:08:14.991Z,20.00
2022-10-11T12:10:49.001Z,24.50
2022-10-11T12:13:21.372Z,21.10
2022-10-11T12:16:09.924Z,20.80
2022-10-11T12:18:57.779Z,16.20
2022-10-11T12:21:25.832Z,21.60
2022-10-11T12:24:10.593Z,26.20
2022-10-11T12:26:46.141Z,17.20
2022-10-11T12:29:17.385Z,18.50
2022-10-11T12:31:48.630Z,19.10
2022-10-11T12:34:38.168Z,18.90
2022-10-11T12:37:18.362Z,21.50
2022-10-11T12:39:52.066Z,17.40
2022-10-11T12:42:36.603Z,18.40
2022-10-11T12:45:13.910Z,19.10
2022-10-11T12:48:02.369Z,19.70
2022-10-11T12:50:51.628Z,20.40
2022-10-11T12:54:21.549Z,20.00
2022-10-11T12:57:12.088Z,14.60
2022-10-11T12:59:45.544Z,20.80
2022-10-11T13:02:38.913Z,16.30
2022-10-11T13:05:19.166Z,15.50
2022-10-11T13:07:47.646Z,18.10
2022-10-11T13:10:54.016Z,13.80
2022-10-11T13:13:25.056Z,17.30
2022-10-11T13:15:55.997Z,16.90
2022-10-11T13:18:26.319Z,17.40
2022-10-11T13:20:54.902Z,19.40
2022-10-11T13:23:24.407Z,18.20
2022-10-11T13:25:53.626Z,20.10
2022-10-11T13:28:22.827Z,12.50
2022-10-11T13:30:54.776Z,12.00
2022-10-11T13:33:35.741Z,14.60
2022-10-11T13:36:06.932Z,11.60
2022-10-11T13:38:37.389Z,11.90
2022-10-11T13:41:08.634Z,11.90
2022-10-11T13:43:37.547Z,10.30
2022-10-11T13:46:06.384Z,12.70
2022-10-11T13:48:41.164Z,8.70
2022-10-11T13:51:30.433Z,12.90
2022-10-11T13:54:01.453Z,15.20
2022-10-11T13:56:45.929Z,10.10
2022-10-11T13:59:23.835Z,15.50
2022-10-11T14:02:00.281Z,11.20
2022-10-11T14:04:38.611Z,9.60
2022-10-11T14:07:07.103Z,8.60
2022-10-11T14:09:38.851Z,10.50
2022-10-11T14:14:53.732Z,8.60
2022-10-11T14:17:33.170Z,8.60
2022-10-11T14:20:15.878Z,9.60
2022-10-11T14:22:44.594Z,9.80
2022-10-11T14:25:13.378Z,9.40
2022-10-11T14:27:42.869Z,9.10
2022-10-11T14:30:28.026Z,9.00
2022-10-11T14:32:59.896Z,13.50
2022-10-11T14:35:35.041Z,9.80
2022-10-11T14:38:03.104Z,11.00
2022-10-11T14:40:32.156Z,10.90
2022-10-11T14:43:00.168Z,12.00
2022-10-11T14:45:29.064Z,18.00
2022-10-11T14:47:57.362Z,12.20
2022-10-11T14:50:37.798Z,27.50
2022-10-11T14:53:08.058Z,12.90
2022-10-11T14:55:38.343Z,18.10
2022-10-11T14:58:08.154Z,32.20
2022-10-11T15:00:36.914Z,22.20
2022-10-11T15:03:07.372Z,14.50
2022-10-11T15:05:36.504Z,10.40
2022-10-11T15:08:07.192Z,12.30
2022-10-11T15:10:39.579Z,9.40
2022-10-11T15:13:09.102Z,11.30
2022-10-11T15:15:41.054Z,10.60
2022-10-11T15:18:13.307Z,13.70
2022-10-11T15:20:44.963Z,11.60
2022-10-11T15:23:13.035Z,12.80
2022-10-11T15:25:42.303Z,14.10
2022-10-11T15:28:28.472Z,12.90
2022-10-11T15:30:56.909Z,13.00
2022-10-11T15:33:25.799Z,14.80
2022-10-11T15:35:53.872Z,24.50
2022-10-11T15:38:24.400Z,21.10
2022-10-11T15:40:53.493Z,14.50
2022-10-11T15:43:24.773Z,13.30
2022-10-11T15:45:55.168Z,15.20
2022-10-11T15:48:26.507Z,16.40
2022-10-11T15:50:55.101Z,12.90
2022-10-11T15:53:28.601Z,15.30
2022-10-11T15:56:06.635Z,17.20
2022-10-11T15:58:40.508Z,17.10
2022-10-11T16:01:19.742Z,16.90
2022-10-11T16:03:49.413Z,20.60
2022-10-11T16:06:18.966Z,21.20
2022-10-11T16:08:48.009Z,25.30
2022-10-11T16:11:16.317Z,29.30
2022-10-11T16:13:45.324Z,35.80
2022-10-11T16:16:13.495Z,40.00
2022-10-11T16:18:41.673Z,48.40
2022-10-11T16:21:12.198Z,38.30
2022-10-11T16:23:40.168Z,30.70
2022-10-11T16:26:12.216Z,32.70
2022-10-11T16:28:42.200Z,35.10
2022-10-11T16:31:16.874Z,34.80
2022-10-11T16:33:48.066Z,30.80
2022-10-11T16:36:33.232Z,25.30
2022-10-11T16:39:05.050Z,31.20
2022-10-11T16:41:33.124Z,35.60
2022-10-11T16:44:01.192Z,32.40
2022-10-11T16:46:29.161Z,33.40
2022-10-11T16:48:57.543Z,31.80
2022-10-11T16:51:25.612Z,27.70
2022-10-11T16:53:53.594Z,27.70
2022-10-11T16:56:24.313Z,23.10
2022-10-11T16:58:54.296Z,25.20
2022-10-11T17:01:22.853Z,24.70
2022-10-11T17:03:52.010Z,20.80
2022-10-11T17:06:20.483Z,22.30
2022-10-11T17:08:48.805Z,25.50
2022-10-11T17:11:17.869Z,27.50
2022-10-11T17:13:46.246Z,24.40
2022-10-11T17:16:14.723Z,26.90
2022-10-11T17:18:43.715Z,45.80
2022-10-11T17:21:14.345Z,60.50
2022-10-11T17:23:43.191Z,67.60
2022-10-11T17:26:16.341Z,71.60
2022-10-11T17:28:44.776Z,72.80
2022-10-11T17:31:13.287Z,63.40
2022-10-11T17:33:41.358Z,64.40
2022-10-11T17:36:25.185Z,80.90
2022-10-11T17:38:53.172Z,80.00
2022-10-11T17:41:21.241Z,82.20
2022-10-11T17:43:49.416Z,76.80
2022-10-11T17:46:18.259Z,78.10
2022-10-11T17:48:46.271Z,84.50
2022-10-11T17:51:19.464Z,76.70
2022-10-11T17:53:50.580Z,82.60
2022-10-11T17:56:27.474Z,86.80
2022-10-11T17:58:59.652Z,78.50
2022-10-11T18:01:29.222Z,71.30
2022-10-11T18:04:03.240Z,72.10
2022-10-11T18:06:34.517Z,63.20
2022-10-11T18:09:03.259Z,63.70
2022-10-11T18:11:31.478Z,58.70
2022-10-11T18:13:59.754Z,57.70
2022-10-11T18:16:30.386Z,56.60
2022-10-11T18:18:59.566Z,55.80
2022-10-11T18:21:34.028Z,52.30
2022-10-11T18:24:05.998Z,51.90
2022-10-11T18:26:34.754Z,51.60
2022-10-11T18:29:03.450Z,50.20
2022-10-11T18:31:35.317Z,55.90
2022-10-11T18:34:05.424Z,51.10
2022-10-11T18:36:33.490Z,43.50
2022-10-11T18:39:04.439Z,46.60
2022-10-11T18:41:34.140Z,58.00
2022-10-11T18:44:07.945Z,50.70
2022-10-11T18:46:36.561Z,53.00
2022-10-11T18:49:04.702Z,49.70
2022-10-11T18:51:36.465Z,50.00
2022-10-11T18:54:05.863Z,58.30
2022-10-11T18:56:36.698Z,60.60
2022-10-11T19:01:38.454Z,71.80
2022-10-11T19:04:09.323Z,88.00
2022-10-11T19:06:43.524Z,85.60
2022-10-11T19:09:14.873Z,82.30
2022-10-11T19:11:43.149Z,74.90
2022-10-11T19:14:16.237Z,84.10
2022-10-11T19:16:49.738Z,85.70
2022-10-11T19:19:24.006Z,87.50
2022-10-11T19:21:52.841Z,89.00
2022-10-11T19:24:23.171Z,71.80
2022-10-11T19:26:53.198Z,93.00
2022-10-11T19:29:24.429Z,79.70
2022-10-11T19:31:58.234Z,75.40
2022-10-11T19:34:28.040Z,77.50
2022-10-11T19:36:56.734Z,70.70
2022-10-11T19:39:25.700Z,76.20
2022-10-11T19:41:54.086Z,68.70
2022-10-11T19:44:22.074Z,69.90
2022-10-11T19:46:52.309Z,73.30
2022-10-11T19:49:25.335Z,75.80
2022-10-11T19:51:55.620Z,78.70
2022-10-11T19:54:24.452Z,87.60
2022-10-11T19:56:52.834Z,74.00
2022-10-11T19:59:21.356Z,66.20
2022-10-11T20:01:52.796Z,55.00
2022-10-11T20:04:47.495Z,54.90
2022-10-11T20:07:10.862Z,64.20
2022-10-11T20:09:39.241Z,62.50
2022-10-11T20:12:08.228Z,69.50
2022-10-11T20:14:36.309Z,59.60
2022-10-11T20:17:04.483Z,60.00
2022-10-11T20:19:32.653Z,72.20
2022-10-11T20:22:01.963Z,66.70
2022-10-11T20:24:33.696Z,72.10
2022-10-11T20:27:04.449Z,74.90
2022-10-11T20:29:32.928Z,61.80
2022-10-11T20:32:01.111Z,51.70
2022-10-11T20:34:29.274Z,59.90
2022-10-11T20:36:57.447Z,53.90
2022-10-11T20:39:25.621Z,65.30
2022-10-11T20:41:53.693Z,69.70
2022-10-11T20:44:21.767Z,62.90
2022-10-11T20:46:49.936Z,75.90
2022-10-11T20:49:20.164Z,74.40
2022-10-11T20:51:48.989Z,67.90
2022-10-11T20:54:17.530Z,59.40
2022-10-11T20:56:46.216Z,70.00
2022-10-11T20:59:14.390Z,81.90
2022-10-11T21:01:42.902Z,72.40
2022-10-11T21:04:20.938Z,69.70
2022-10-11T21:06:49.359Z,59.70
2022-10-11T21:09:17.650Z,67.90
2022-10-11T21:11:46.429Z,68.90
2022-10-11T21:14:14.597Z,72.30
2022-10-11T21:16:42.562Z,67.80
2022-10-11T21:19:14.702Z,64.50
2022-10-11T21:21:46.441Z,54.10
2022-10-11T21:24:16.606Z,52.20
2022-10-11T21:26:44.684Z,52.70
2022-10-11T21:29:12.752Z,51.50
2022-10-11T21:31:41.044Z,57.60
2022-10-11T21:34:09.056Z,51.80
2022-10-11T21:36:37.066Z,57.80
2022-10-11T21:39:05.141Z,71.30
2022-10-11T21:41:34.234Z,61.90
2022-10-11T21:44:02.713Z,61.80
2022-10-11T21:47:01.282Z,59.70
2022-10-11T21:49:20.772Z,51.70
2022-10-11T21:51:48.738Z,49.50
2022-10-11T21:54:17.410Z,53.60
2022-10-11T21:56:45.605Z,54.00
2022-10-11T21:59:13.874Z,51.70
2022-10-11T22:01:43.402Z,55.70
2022-10-11T22:04:11.760Z,55.10
2022-10-11T22:06:40.703Z,47.30
2022-10-11T22:09:09.494Z,56.50
2022-10-11T22:11:38.023Z,51.00
2022-10-11T22:14:07.019Z,50.50
2022-10-11T22:16:35.596Z,52.20
2022-10-11T22:19:04.260Z,48.80
2022-10-11T22:21:32.253Z,41.50
2022-10-11T22:24:00.329Z,45.60
2022-10-11T22:26:30.983Z,40.40
2022-10-11T22:29:00.715Z,43.40
2022-10-11T22:31:29.925Z,43.70
2022-10-11T22:34:00.317Z,48.00
2022-10-11T22:36:33.828Z,52.00
2022-10-11T22:39:07.874Z,42.90
2022-10-11T22:41:36.588Z,50.10
2022-10-11T22:44:05.755Z,53.60
2022-10-11T22:46:34.060Z,57.20
2022-10-11T22:49:02.129Z,44.10
2022-10-11T22:51:30.208Z,53.50
2022-10-11T22:53:58.374Z,50.00
2022-10-11T22:56:26.344Z,55.30
2022-10-11T22:58:54.415Z,49.60
2022-10-11T23:01:22.494Z,49.30
2022-10-11T23:03:50.983Z,50.10
2022-10-11T23:06:19.351Z,50.50
2022-10-11T23:08:47.314Z,47.90
2022-10-11T23:11:15.600Z,49.80
2022-10-11T23:13:43.866Z,42.80
2022-10-11T23:16:13.169Z,47.50
2022-10-11T23:18:41.936Z,38.80
2022-10-11T23:21:10.232Z,38.60
2022-10-11T23:23:40.010Z,41.90
2022-10-11T23:26:13.235Z,43.00
2022-10-11T23:28:43.125Z,33.90
2022-10-11T23:31:16.857Z,38.20
2022-10-11T23:33:46.667Z,42.10
2022-10-11T23:36:23.542Z,35.00
2022-10-11T23:39:00.626Z,39.20
2022-10-11T23:41:30.234Z,39.60
2022-10-11T23:43:59.123Z,46.60
2022-10-11T23:46:27.300Z,36.10
2022-10-11T23:48:55.368Z,36.00
2022-10-11T23:51:23.336Z,39.90
2022-10-11T23:53:51.511Z,42.70
2022-10-11T23:56:19.892Z,39.90
2022-10-11T23:58:47.961Z,43.00
